createdAt,value
2022-08-05T00:01:36.587Z,15.33
2022-08-05T00:04:19.353Z,13.77
2022-08-05T00:06:51.944Z,12.17
2022-08-05T00:09:20.540Z,15.17
2022-08-05T00:11:55.256Z,14.63
2022-08-05T00:14:27.781Z,11.57
2022-08-05T00:16:58.057Z,11.93
2022-08-05T00:19:33.159Z,14.13
2022-08-05T00:22:02.408Z,16.13
2022-08-05T00:24:30.941Z,13.03
2022-08-05T00:27:00.086Z,12.43
2022-08-05T00:29:37.650Z,16.73
2022-08-05T00:32:12.870Z,11.40
2022-08-05T00:35:05.326Z,17.60
2022-08-05T00:37:51.098Z,11.97
2022-08-05T00:40:28.154Z,13.50
2022-08-05T00:42:59.659Z,14.80
2022-08-05T00:45:43.096Z,13.87
2022-08-05T00:48:13.643Z,9.00
2022-08-05T00:50:46.017Z,11.57
2022-08-05T00:53:44.853Z,10.40
2022-08-05T00:56:04.553Z,12.57
2022-08-05T00:58:32.695Z,13.90
2022-08-05T01:01:00.891Z,8.03
2022-08-05T01:03:31.006Z,14.13
2022-08-05T01:06:05.573Z,11.80
2022-08-05T01:08:42.895Z,13.07
2022-08-05T01:11:22.526Z,15.60
2022-08-05T01:14:08.739Z,12.40
2022-08-05T01:16:44.967Z,18.70
2022-08-05T01:19:36.534Z,14.43
2022-08-05T01:22:30.734Z,15.90
2022-08-05T01:25:13.616Z,13.33
2022-08-05T01:28:14.451Z,11.10
2022-08-05T01:30:53.610Z,14.23
2022-08-05T01:33:29.413Z,14.77
2022-08-05T01:36:13.048Z,17.23
2022-08-05T01:38:48.550Z,12.23
2022-08-05T01:41:22.583Z,18.40
2022-08-05T01:43:57.335Z,21.33
2022-08-05T01:46:43.112Z,27.90
2022-08-05T01:49:23.000Z,26.70
2022-08-05T01:51:58.477Z,24.93
2022-08-05T01:54:33.235Z,26.93
2022-08-05T01:58:10.721Z,22.00
2022-08-05T01:59:55.999Z,19.07
2022-08-05T02:02:29.173Z,20.50
2022-08-05T02:05:01.698Z,18.23
2022-08-05T02:07:32.167Z,16.60
2022-08-05T02:10:03.217Z,19.60
2022-08-05T02:12:38.184Z,17.30
2022-08-05T02:15:13.654Z,28.20
2022-08-05T02:18:32.320Z,24.00
2022-08-05T02:20:47.425Z,23.00
2022-08-05T02:23:22.305Z,22.67
2022-08-05T02:25:52.381Z,23.80
2022-08-05T02:28:28.952Z,19.03
2022-08-05T02:31:04.166Z,13.90
2022-08-05T02:33:38.300Z,17.93
2022-08-05T02:36:09.810Z,21.07
2022-08-05T02:38:53.438Z,17.90
2022-08-05T02:41:28.420Z,16.50
2022-08-05T02:44:11.949Z,11.83
2022-08-05T02:46:58.989Z,14.40
2022-08-05T02:49:35.695Z,17.20
2022-08-05T02:52:08.611Z,20.10
2022-08-05T02:54:42.144Z,23.23
2022-08-05T02:58:19.662Z,24.27
2022-08-05T03:00:02.743Z,17.50
2022-08-05T03:02:36.100Z,16.50
2022-08-05T03:05:05.163Z,21.03
2022-08-05T03:07:59.248Z,17.40
2022-08-05T03:10:25.177Z,20.33
2022-08-05T03:12:54.652Z,20.73
2022-08-05T03:15:24.379Z,18.93
2022-08-05T03:17:57.594Z,16.97
2022-08-05T03:20:26.701Z,16.27
2022-08-05T03:22:57.663Z,18.13
2022-08-05T03:25:33.017Z,23.87
2022-08-05T03:28:03.306Z,23.40
2022-08-05T03:30:34.232Z,21.70
2022-08-05T03:33:06.169Z,21.33
2022-08-05T03:35:41.164Z,20.67
2022-08-05T03:38:12.009Z,17.53
2022-08-05T03:40:45.212Z,19.40
2022-08-05T03:44:08.336Z,18.40
2022-08-05T03:46:08.261Z,20.97
2022-08-05T03:48:38.021Z,20.50
2022-08-05T03:52:38.945Z,22.00
2022-08-05T03:54:59.166Z,25.30
2022-08-05T03:56:58.801Z,22.43
2022-08-05T03:59:47.590Z,24.60
2022-08-05T04:02:38.426Z,22.77
2022-08-05T04:05:11.413Z,20.90
2022-08-05T04:07:58.781Z,17.00
2022-08-05T04:10:32.043Z,24.23
2022-08-05T04:13:06.432Z,28.10
2022-08-05T04:15:36.546Z,32.20
2022-08-05T04:18:07.394Z,26.30
2022-08-05T04:20:41.306Z,21.80
2022-08-05T04:23:12.204Z,15.70
2022-08-05T04:25:57.853Z,18.47
2022-08-05T04:28:31.750Z,6.40
2022-08-05T04:31:01.357Z,8.10
2022-08-05T04:34:18.639Z,7.70
2022-08-05T04:36:44.947Z,8.37
2022-08-05T04:39:08.356Z,6.80
2022-08-05T04:41:38.700Z,9.63
2022-08-05T04:44:09.518Z,11.03
2022-08-05T04:46:38.684Z,6.87
2022-08-05T04:49:12.230Z,7.87
2022-08-05T04:51:45.482Z,6.90
2022-08-05T04:54:14.664Z,8.27
2022-08-05T04:56:43.667Z,8.37
2022-08-05T04:59:21.924Z,9.20
2022-08-05T05:02:07.136Z,6.70
2022-08-05T05:04:49.720Z,8.57
2022-08-05T05:07:23.876Z,8.57
2022-08-05T05:09:57.958Z,7.50
2022-08-05T05:12:27.426Z,10.20
2022-08-05T05:14:55.954Z,9.63
2022-08-05T05:17:24.977Z,6.87
2022-08-05T05:20:14.449Z,9.47
2022-08-05T05:22:44.289Z,8.07
2022-08-05T05:25:16.468Z,8.73
2022-08-05T05:27:48.613Z,6.20
2022-08-05T05:30:29.149Z,6.90
2022-08-05T05:33:00.475Z,10.40
2022-08-05T05:35:37.996Z,9.50
2022-08-05T05:38:13.259Z,9.53
2022-08-05T05:40:49.453Z,15.20
2022-08-05T05:43:22.270Z,13.80
2022-08-05T05:46:13.739Z,10.67
2022-08-05T05:48:45.842Z,14.07
2022-08-05T05:51:20.129Z,12.30
2022-08-05T05:53:57.173Z,11.20
2022-08-05T05:56:31.603Z,9.30
2022-08-05T05:59:03.219Z,14.27
2022-08-05T06:01:37.381Z,12.23
2022-08-05T06:04:08.342Z,10.90
2022-08-05T06:06:42.426Z,11.20
2022-08-05T06:09:17.593Z,7.47
2022-08-05T06:12:01.474Z,11.63
2022-08-05T06:14:30.932Z,7.87
2022-08-05T06:16:59.481Z,10.97
2022-08-05T06:19:35.001Z,10.17
2022-08-05T06:22:04.452Z,9.47
2022-08-05T06:24:37.144Z,11.10
2022-08-05T06:27:06.053Z,11.00
2022-08-05T06:29:53.372Z,8.70
2022-08-05T06:32:33.802Z,8.87
2022-08-05T06:35:06.105Z,6.63
2022-08-05T06:37:57.994Z,8.00
2022-08-05T06:40:32.478Z,9.40
2022-08-05T06:43:01.111Z,7.10
2022-08-05T06:45:45.071Z,8.20
2022-08-05T06:48:53.830Z,10.57
2022-08-05T06:51:09.644Z,10.40
2022-08-05T06:53:39.395Z,10.83
2022-08-05T06:56:25.762Z,7.27
2022-08-05T06:58:55.089Z,6.70
2022-08-05T07:01:23.409Z,6.83
2022-08-05T07:03:55.883Z,7.87
2022-08-05T07:06:24.024Z,12.60
2022-08-05T07:08:55.828Z,7.70
2022-08-05T07:11:25.702Z,11.07
2022-08-05T07:14:20.074Z,8.00
2022-08-05T07:18:01.616Z,7.77
2022-08-05T07:22:30.185Z,8.53
2022-08-05T07:24:59.907Z,10.60
2022-08-05T07:27:58.047Z,7.23
2022-08-05T07:30:33.457Z,9.13
2022-08-05T07:33:04.995Z,9.03
2022-08-05T07:35:55.607Z,7.93
2022-08-05T07:38:33.231Z,11.07
2022-08-05T07:42:07.408Z,8.00
2022-08-05T07:43:56.351Z,7.97
2022-08-05T07:46:26.616Z,7.80
2022-08-05T07:49:02.172Z,4.60
2022-08-05T07:51:37.609Z,5.70
2022-08-05T07:54:18.849Z,6.37
2022-08-05T07:57:02.822Z,6.83
2022-08-05T07:59:39.870Z,4.13
2022-08-05T08:02:15.656Z,7.53
2022-08-05T08:04:49.823Z,6.57
2022-08-05T08:07:22.501Z,7.10
2022-08-05T08:09:55.173Z,6.33
2022-08-05T08:12:36.902Z,5.37
2022-08-05T08:15:15.261Z,7.53
2022-08-05T08:17:49.748Z,7.90
2022-08-05T08:20:59.805Z,6.57
2022-08-05T08:23:59.976Z,7.90
2022-08-05T08:26:02.774Z,5.70
2022-08-05T08:28:36.849Z,9.87
2022-08-05T08:31:15.081Z,7.83
2022-08-05T08:33:45.995Z,5.57
2022-08-05T08:36:39.188Z,8.50
2022-08-05T08:39:15.493Z,7.93
2022-08-05T08:41:51.109Z,4.83
2022-08-05T08:45:24.391Z,7.47
2022-08-05T08:48:06.204Z,5.90
2022-08-05T08:50:30.036Z,9.20
2022-08-05T08:53:08.161Z,6.17
2022-08-05T08:56:04.015Z,6.17
2022-08-05T08:58:37.562Z,8.50
2022-08-05T09:01:16.536Z,8.00
2022-08-05T09:03:47.496Z,6.67
2022-08-05T09:06:21.347Z,7.07
2022-08-05T09:08:52.471Z,7.10
2022-08-05T09:11:51.580Z,9.83
2022-08-05T09:14:54.786Z,6.33
2022-08-05T09:16:57.823Z,18.30
2022-08-05T09:19:36.449Z,6.57
2022-08-05T09:22:21.974Z,6.33
2022-08-05T09:25:00.320Z,6.50
2022-08-05T09:28:04.211Z,7.80
2022-08-05T09:30:23.479Z,6.50
2022-08-05T09:32:52.787Z,7.40
2022-08-05T09:35:27.351Z,6.47
2022-08-05T09:38:16.488Z,8.43
2022-08-05T09:40:52.597Z,9.17
2022-08-05T09:43:40.738Z,5.40
2022-08-05T09:46:27.916Z,6.60
2022-08-05T09:49:06.864Z,6.00
2022-08-05T09:51:39.991Z,4.30
2022-08-05T09:54:10.028Z,5.83
2022-08-05T09:56:39.854Z,6.90
2022-08-05T09:59:19.496Z,5.20
2022-08-05T10:01:48.313Z,5.93
2022-08-05T10:04:38.556Z,7.37
2022-08-05T10:07:20.346Z,6.03
2022-08-05T10:10:14.339Z,4.83
2022-08-05T10:12:49.167Z,6.63
2022-08-05T10:15:23.236Z,6.00
2022-08-05T10:18:06.431Z,4.87
2022-08-05T10:20:37.434Z,8.33
2022-08-05T10:23:08.984Z,4.37
2022-08-05T10:25:56.307Z,4.50
2022-08-05T10:28:29.270Z,4.80
2022-08-05T10:32:49.009Z,7.27
2022-08-05T10:33:52.178Z,7.53
2022-08-05T10:36:23.466Z,6.87
2022-08-05T10:39:01.619Z,4.77
2022-08-05T10:41:45.527Z,6.40
2022-08-05T10:44:19.827Z,4.33
2022-08-05T10:46:51.038Z,7.03
2022-08-05T10:49:26.801Z,5.83
2022-08-05T10:52:00.663Z,4.40
2022-08-05T10:54:56.327Z,4.03
2022-08-05T10:57:32.465Z,5.00
2022-08-05T11:00:19.156Z,4.27
2022-08-05T11:03:24.893Z,4.53
2022-08-05T11:06:16.075Z,5.37
2022-08-05T11:09:24.181Z,4.47
2022-08-05T11:12:03.118Z,5.40
2022-08-05T11:17:58.768Z,5.70
2022-08-05T11:20:44.172Z,4.33
2022-08-05T11:24:04.473Z,3.67
2022-08-05T11:26:32.089Z,5.67
2022-08-05T11:29:12.914Z,4.03
2022-08-05T11:31:57.686Z,4.73
2022-08-05T11:34:39.350Z,3.33
2022-08-05T11:38:26.834Z,3.50
2022-08-05T11:40:03.081Z,3.47
2022-08-05T11:42:37.939Z,5.47
2022-08-05T11:45:22.999Z,2.97
2022-08-05T11:47:54.738Z,3.70
2022-08-05T11:50:23.542Z,2.73
2022-08-05T11:52:57.592Z,2.73
2022-08-05T11:55:32.333Z,5.03
2022-08-05T11:58:10.520Z,4.50
2022-08-05T12:00:44.444Z,4.80
2022-08-05T12:03:29.176Z,5.13
2022-08-05T12:06:10.016Z,3.60
2022-08-05T12:08:51.276Z,14.73
2022-08-05T12:11:21.848Z,2.70
2022-08-05T12:13:58.614Z,4.13
2022-08-05T12:16:39.216Z,4.90
2022-08-05T12:19:08.678Z,3.00
2022-08-05T12:21:43.108Z,4.70
2022-08-05T12:24:13.898Z,4.00
2022-08-05T12:26:47.788Z,2.93
2022-08-05T12:29:22.932Z,2.83
2022-08-05T12:31:55.318Z,4.53
2022-08-05T12:34:28.130Z,4.07
2022-08-05T12:36:57.830Z,3.40
2022-08-05T12:39:27.817Z,2.67
2022-08-05T12:42:03.484Z,4.30
2022-08-05T12:44:34.008Z,4.00
2022-08-05T12:47:04.032Z,3.27
2022-08-05T12:50:02.076Z,2.80
2022-08-05T12:52:38.848Z,3.73
2022-08-05T12:55:22.268Z,3.60
2022-08-05T12:58:48.356Z,2.60
2022-08-05T13:02:03.366Z,2.50
2022-08-05T13:03:38.994Z,2.50
2022-08-05T13:06:16.004Z,3.53
2022-08-05T13:08:50.884Z,3.97
2022-08-05T13:11:47.073Z,2.80
2022-08-05T13:14:19.859Z,2.37
2022-08-05T13:16:54.767Z,2.20
2022-08-05T13:19:27.601Z,2.33
2022-08-05T13:22:29.146Z,3.33
2022-08-05T13:25:00.721Z,2.87
2022-08-05T13:27:38.453Z,2.57
2022-08-05T13:30:32.799Z,2.80
2022-08-05T13:33:01.400Z,2.20
2022-08-05T13:35:47.406Z,2.10
2022-08-05T13:38:30.482Z,2.00
2022-08-05T13:41:00.247Z,2.10
2022-08-05T13:43:45.550Z,3.43
2022-08-05T13:46:30.798Z,2.63
2022-08-05T13:49:10.512Z,3.37
2022-08-05T13:51:46.614Z,4.60
2022-08-05T13:54:16.690Z,1.87
2022-08-05T13:56:51.625Z,2.67
2022-08-05T13:59:25.005Z,2.40
2022-08-05T14:01:58.038Z,2.73
2022-08-05T14:04:49.614Z,8.10
2022-08-05T14:07:25.634Z,2.93
2022-08-05T14:10:12.522Z,2.07
2022-08-05T14:12:42.633Z,3.07
2022-08-05T14:16:05.386Z,1.97
2022-08-05T14:18:01.021Z,9.43
2022-08-05T14:20:30.653Z,4.20
2022-08-05T14:23:00.284Z,2.57
2022-08-05T14:25:30.175Z,1.97
2022-08-05T14:27:58.761Z,2.47
2022-08-05T14:30:27.840Z,4.47
2022-08-05T14:32:57.034Z,3.10
2022-08-05T14:35:50.132Z,2.43
2022-08-05T14:38:33.212Z,2.83
2022-08-05T14:41:06.348Z,2.40
2022-08-05T14:43:58.810Z,2.10
2022-08-05T14:46:28.661Z,2.90
2022-08-05T14:49:06.734Z,5.60
2022-08-05T14:51:37.433Z,7.13
2022-08-05T14:54:27.602Z,5.20
2022-08-05T14:56:56.010Z,2.30
2022-08-05T14:59:24.321Z,2.30
2022-08-05T15:01:53.818Z,3.70
2022-08-05T15:04:22.853Z,2.40
2022-08-05T15:06:51.497Z,4.17
2022-08-05T15:09:51.496Z,5.50
2022-08-05T15:12:11.574Z,4.90
2022-08-05T15:14:49.834Z,2.50
2022-08-05T15:17:45.808Z,6.60
2022-08-05T15:20:18.207Z,11.73
2022-08-05T15:22:54.455Z,3.10
2022-08-05T15:25:51.236Z,1.67
2022-08-05T15:28:15.267Z,2.90
2022-08-05T15:30:45.551Z,7.60
2022-08-05T15:33:56.464Z,4.80
2022-08-05T15:36:04.045Z,2.77
2022-08-05T15:38:36.521Z,4.57
2022-08-05T15:41:22.822Z,4.73
2022-08-05T15:43:54.596Z,2.83
2022-08-05T15:46:25.297Z,2.70
2022-08-05T15:48:58.744Z,4.40
2022-08-05T15:52:12.619Z,6.23
2022-08-05T15:54:19.374Z,2.47
2022-08-05T15:56:48.806Z,3.37
2022-08-05T15:59:20.062Z,2.50
2022-08-05T16:01:52.623Z,2.23
2022-08-05T16:04:25.637Z,7.37
2022-08-05T16:06:55.484Z,2.80
2022-08-05T16:09:24.695Z,2.00
2022-08-05T16:11:54.802Z,5.20
2022-08-05T16:14:24.776Z,2.80
2022-08-05T16:16:55.838Z,3.77
2022-08-05T16:20:05.217Z,8.53
2022-08-05T16:22:15.454Z,3.50
2022-08-05T16:24:51.953Z,4.40
2022-08-05T16:27:32.146Z,8.40
2022-08-05T16:30:23.412Z,4.00
2022-08-05T16:32:55.161Z,4.70
2022-08-05T16:35:28.570Z,5.93
2022-08-05T16:38:01.838Z,3.37
2022-08-05T16:40:38.714Z,4.37
2022-08-05T16:43:08.268Z,4.90
2022-08-05T16:46:04.214Z,4.93
2022-08-05T16:48:35.379Z,6.07
2022-08-05T16:51:10.024Z,6.33
2022-08-05T16:54:05.992Z,7.97
2022-08-05T16:56:29.960Z,3.63
2022-08-05T16:59:01.838Z,3.97
2022-08-05T17:01:53.499Z,4.90
2022-08-05T17:04:26.345Z,5.50
2022-08-05T17:06:56.944Z,5.20
2022-08-05T17:09:29.521Z,3.30
2022-08-05T17:11:59.476Z,5.00
2022-08-05T17:14:37.386Z,2.53
2022-08-05T17:17:14.504Z,4.00
2022-08-05T17:19:45.369Z,4.17
2022-08-05T17:22:24.381Z,3.30
2022-08-05T17:24:57.588Z,5.03
2022-08-05T17:27:33.719Z,6.13
2022-08-05T17:30:12.159Z,5.40
2022-08-05T17:32:47.959Z,3.40
2022-08-05T17:35:20.566Z,8.90
2022-08-05T17:37:49.451Z,3.87
2022-08-05T17:40:22.556Z,5.10
2022-08-05T17:42:53.244Z,3.40
2022-08-05T17:45:37.949Z,4.90
2022-08-05T17:48:07.853Z,3.43
2022-08-05T17:50:36.475Z,3.37
2022-08-05T17:53:08.428Z,3.77
2022-08-05T17:55:39.784Z,5.80
2022-08-05T17:58:12.890Z,5.97
2022-08-05T18:00:47.492Z,7.03
2022-08-05T18:03:56.423Z,6.07
2022-08-05T18:06:12.196Z,3.00
2022-08-05T18:08:46.113Z,3.57
2022-08-05T18:11:24.516Z,5.00
2022-08-05T18:14:03.452Z,8.23
2022-08-05T18:16:34.623Z,3.53
2022-08-05T18:19:03.681Z,5.90
2022-08-05T18:22:08.567Z,3.97
2022-08-05T18:24:20.995Z,5.67
2022-08-05T18:26:49.336Z,5.37
2022-08-05T18:29:17.597Z,4.30
2022-08-05T18:32:12.768Z,3.30
2022-08-05T18:34:42.754Z,3.90
2022-08-05T18:37:12.269Z,6.87
2022-08-05T18:40:30.933Z,6.33
2022-08-05T18:42:29.310Z,6.43
2022-08-05T18:44:57.656Z,2.87
2022-08-05T18:47:29.715Z,11.93
2022-08-05T18:50:19.496Z,6.90
2022-08-05T18:52:50.795Z,4.27
2022-08-05T18:55:21.398Z,4.80
2022-08-05T18:57:54.040Z,5.87
2022-08-05T19:00:28.615Z,1.93
2022-08-05T19:03:04.093Z,2.93
2022-08-05T19:06:12.180Z,3.43
2022-08-05T19:08:30.925Z,4.90
2022-08-05T19:11:04.966Z,4.47
2022-08-05T19:13:35.768Z,2.13
2022-08-05T19:16:05.652Z,2.13
2022-08-05T19:18:56.702Z,14.00
2022-08-05T19:21:29.417Z,3.10
2022-08-05T19:24:05.686Z,4.90
2022-08-05T19:26:54.352Z,2.43
2022-08-05T19:29:26.555Z,3.40
2022-08-05T19:32:05.597Z,3.33
2022-08-05T19:34:38.219Z,6.03
2022-08-05T19:37:06.675Z,4.67
2022-08-05T19:39:45.639Z,3.63
2022-08-05T19:42:19.705Z,4.03
2022-08-05T19:45:05.758Z,2.57
2022-08-05T19:47:34.600Z,7.30
2022-08-05T19:50:10.553Z,4.43
2022-08-05T19:52:40.757Z,3.43
2022-08-05T19:56:14.577Z,3.40
2022-08-05T19:58:19.440Z,3.33
2022-08-05T20:00:47.039Z,2.73
2022-08-05T20:03:15.853Z,7.47
2022-08-05T20:05:51.205Z,4.10
2022-08-05T20:08:20.126Z,3.47
2022-08-05T20:10:49.660Z,3.70
2022-08-05T20:13:29.837Z,5.17
2022-08-05T20:16:07.386Z,5.73
2022-08-05T20:18:36.211Z,3.80
2022-08-05T20:21:07.677Z,5.43
2022-08-05T20:23:39.472Z,5.13
2022-08-05T20:26:19.648Z,3.00
2022-08-05T20:28:50.371Z,6.53
2022-08-05T20:31:22.893Z,3.47
2022-08-05T20:33:56.681Z,2.50
2022-08-05T20:36:26.759Z,4.57
2022-08-05T20:38:57.988Z,5.20
2022-08-05T20:41:44.334Z,3.23
2022-08-05T20:44:18.488Z,4.93
2022-08-05T20:46:48.020Z,2.07
2022-08-05T20:49:18.492Z,3.60
2022-08-05T20:51:54.131Z,4.63
2022-08-05T20:54:22.573Z,3.90
2022-08-05T20:56:53.084Z,6.63
2022-08-05T20:59:27.141Z,4.93
2022-08-05T21:02:09.557Z,3.27
2022-08-05T21:04:39.033Z,4.40
2022-08-05T21:07:09.043Z,3.00
2022-08-05T21:09:37.263Z,5.80
2022-08-05T21:12:19.882Z,1.77
2022-08-05T21:14:48.281Z,4.33
2022-08-05T21:17:16.743Z,2.30
2022-08-05T21:19:47.862Z,3.00
2022-08-05T21:22:23.215Z,3.30
2022-08-05T21:24:52.724Z,2.73
2022-08-05T21:27:25.239Z,3.77
2022-08-05T21:29:56.388Z,3.73
2022-08-05T21:32:26.710Z,3.73
2022-08-05T21:35:08.945Z,2.73
2022-08-05T21:37:52.635Z,5.60
2022-08-05T21:40:23.468Z,2.93
2022-08-05T21:42:53.635Z,11.17
2022-08-05T21:45:24.147Z,4.13
2022-08-05T21:47:57.258Z,3.90
2022-08-05T21:50:26.418Z,2.90
2022-08-05T21:52:58.951Z,3.70
2022-08-05T21:56:01.294Z,8.00
2022-08-05T21:58:30.682Z,5.13
2022-08-05T22:01:00.760Z,4.33
2022-08-05T22:03:49.007Z,5.30
2022-08-05T22:06:23.055Z,5.33
2022-08-05T22:09:14.035Z,6.07
2022-08-05T22:11:46.938Z,4.70
2022-08-05T22:14:34.517Z,7.50
2022-08-05T22:17:06.553Z,6.17
2022-08-05T22:20:00.832Z,3.23
2022-08-05T22:22:27.209Z,4.60
2022-08-05T22:25:18.263Z,3.57
2022-08-05T22:28:09.184Z,2.30
2022-08-05T22:30:56.262Z,2.83
2022-08-05T22:33:57.490Z,6.40
2022-08-05T22:36:16.565Z,3.20
2022-08-05T22:38:48.037Z,2.80
2022-08-05T22:42:05.694Z,3.63
2022-08-05T22:44:07.886Z,2.77
2022-08-05T22:46:40.177Z,4.10
2022-08-05T22:49:23.541Z,3.80
2022-08-05T22:52:04.612Z,4.60
2022-08-05T22:54:34.955Z,7.17
2022-08-05T22:57:05.154Z,6.43
2022-08-05T22:59:44.251Z,3.00
2022-08-05T23:02:18.222Z,3.60
2022-08-05T23:04:51.524Z,4.50
2022-08-05T23:07:22.037Z,5.57
2022-08-05T23:09:56.979Z,12.40
2022-08-05T23:12:32.825Z,10.60
2022-08-05T23:15:03.310Z,11.63
2022-08-05T23:17:34.985Z,7.60
2022-08-05T23:20:10.486Z,7.63
2022-08-05T23:22:47.034Z,8.17
2022-08-05T23:25:50.153Z,4.83
2022-08-05T23:28:07.610Z,3.37
2022-08-05T23:30:39.972Z,5.53
2022-08-05T23:33:16.418Z,10.20
2022-08-05T23:35:55.939Z,1.70
2022-08-05T23:38:25.917Z,5.73
2022-08-05T23:40:54.324Z,3.23
2022-08-05T23:44:02.940Z,7.77
2022-08-05T23:46:21.251Z,10.50
2022-08-05T23:48:59.988Z,4.80
2022-08-05T23:51:54.936Z,3.10
2022-08-05T23:54:26.065Z,3.10
2022-08-05T23:56:56.019Z,5.13
2022-08-05T23:59:37.771Z,9.60
